KMHV/MHV METAR and TAF weather

Enter ICAO airport designator
Station Type Date Time Source
KMHV METAR 2022/12/04 06:20 UTC NOAA

KMHV 040620Z AUTO VRB04KT 10SM FEW110 11/05 A3010 RMK A01


Station Type Date Time Source
KMHV Decoded METAR 2022/12/04 06:20 UTC NOAA

Mojave, CA, United States (KMHV) 35-04N 118-09W
Dec 04, 2022 - 01:20 AM EST / 2022.12.04 0620 UTC
Wind: Variable at 5 MPH (4 KT):0
Visibility: 10 mile(s):0
Sky conditions: mostly clear
Temperature: 51 F (11 C)
Dew Point: 41 F (5 C)
Relative Humidity: 66%
Pressure (altimeter): 30.1 in. Hg (1019 hPa)
ob: KMHV 040620Z AUTO VRB04KT 10SM FEW110 11/05 A3010 RMK A01
cycle: 6

Station Type Date Time Source
KMHV TAF UTC NOAA

Error!

Example: see airport list